Main page
METAR-TAF:

METAR-TAF

Airports :

Eagle Creek Airpark

Indianapolis, Indiana, United States

latitude: 39-49-30N, longitude: 086-17-45W, elevation: 820 ft

Current weather observation

The report was made 1 hour and 3 minutes ago, at 10:53 UTC
Wind 5 mph from the South
Temperature 36°F
Humidity 51%
Pressure 30.10 in. Hg
Visibility: 10 miles
Overcast at a height of 6500 ft

METAR: KEYE 231053Z AUTO 19004KT 10SM OVC065 02/M07 A3010 RMK AO2 SLP199 T00221067 $

Time: 06:56 (11:56 UTC)


TAF: missing

Weather observations and forecasts of more than 4000 airports (METAR and TAF reports).

The available stations are represented by yellow and red dots on the map.

Hover mouse over dot to see the name of the station.

Then click to see weather observations and forecasts.

To change the map : click on the green buttons with a black cross to zoom in, on the green button with a dash to zoom out, or on the green arrows for adjacent maps.


METAR-TAF: